sensor_id;sensor_type;location;lat;lon;timestamp;P1;durP1;ratioP1;P2;durP2;ratioP2
44670;SDS011;48397;53.016;-2.260;2023-05-07T00:01:46;29.13;;;9.60;;
44670;SDS011;48397;53.016;-2.260;2023-05-07T00:04:13;28.67;;;10.05;;
44670;SDS011;48397;53.016;-2.260;2023-05-07T00:09:09;31.70;;;12.02;;
44670;SDS011;48397;53.016;-2.260;2023-05-07T00:11:37;32.38;;;12.27;;
44670;SDS011;48397;53.016;-2.260;2023-05-07T00:14:05;37.63;;;14.32;;
44670;SDS011;48397;53.016;-2.260;2023-05-07T00:16:33;46.00;;;15.98;;
44670;SDS011;48397;53.016;-2.260;2023-05-07T00:21:29;39.88;;;14.50;;
44670;SDS011;48397;53.016;-2.260;2023-05-07T00:23:58;81.40;;;19.45;;
44670;SDS011;48397;53.016;-2.260;2023-05-07T00:26:26;54.60;;;18.20;;
44670;SDS011;48397;53.016;-2.260;2023-05-07T00:28:54;54.80;;;18.75;;
44670;SDS011;48397;53.016;-2.260;2023-05-07T00:31:22;60.25;;;20.30;;
44670;SDS011;48397;53.016;-2.260;2023-05-07T00:33:49;56.13;;;18.27;;
44670;SDS011;48397;53.016;-2.260;2023-05-07T00:36:20;57.25;;;19.42;;
44670;SDS011;48397;53.016;-2.260;2023-05-07T00:38:48;64.90;;;19.30;;
44670;SDS011;48397;53.016;-2.260;2023-05-07T00:41:16;64.97;;;20.38;;
44670;SDS011;48397;53.016;-2.260;2023-05-07T00:43:43;63.22;;;20.58;;
44670;SDS011;48397;53.016;-2.260;2023-05-07T00:46:11;67.55;;;21.40;;
44670;SDS011;48397;53.016;-2.260;2023-05-07T00:48:40;60.78;;;18.63;;
44670;SDS011;48397;53.016;-2.260;2023-05-07T00:53:38;59.00;;;18.73;;
44670;SDS011;48397;53.016;-2.260;2023-05-07T00:56:06;55.92;;;16.70;;
44670;SDS011;48397;53.016;-2.260;2023-05-07T00:58:34;41.78;;;14.20;;
44670;SDS011;48397;53.016;-2.260;2023-05-07T01:01:02;50.15;;;16.08;;
44670;SDS011;48397;53.016;-2.260;2023-05-07T01:03:31;46.55;;;15.05;;
44670;SDS011;48397;53.016;-2.260;2023-05-07T01:05:59;33.92;;;11.50;;
44670;SDS011;48397;53.016;-2.260;2023-05-07T01:08:28;47.15;;;15.32;;
44670;SDS011;48397;53.016;-2.260;2023-05-07T01:10:57;39.53;;;13.77;;
44670;SDS011;48397;53.016;-2.260;2023-05-07T01:13:26;46.55;;;16.75;;
44670;SDS011;48397;53.016;-2.260;2023-05-07T01:15:56;42.35;;;15.55;;
44670;SDS011;48397;53.016;-2.260;2023-05-07T01:18:23;49.03;;;17.33;;
44670;SDS011;48397;53.016;-2.260;2023-05-07T01:20:53;33.33;;;13.02;;
44670;SDS011;48397;53.016;-2.260;2023-05-07T01:23:23;35.30;;;13.43;;
44670;SDS011;48397;53.016;-2.260;2023-05-07T01:25:54;36.05;;;14.25;;
44670;SDS011;48397;53.016;-2.260;2023-05-07T01:28:25;37.78;;;14.75;;
44670;SDS011;48397;53.016;-2.260;2023-05-07T01:30:59;37.47;;;14.10;;
44670;SDS011;48397;53.016;-2.260;2023-05-07T01:33:32;41.47;;;15.15;;
44670;SDS011;48397;53.016;-2.260;2023-05-07T01:36:02;36.85;;;14.00;;
44670;SDS011;48397;53.016;-2.260;2023-05-07T01:38:33;43.30;;;16.27;;
44670;SDS011;48397;53.016;-2.260;2023-05-07T01:41:03;35.83;;;14.02;;
44670;SDS011;48397;53.016;-2.260;2023-05-07T01:43:32;29.38;;;12.65;;
44670;SDS011;48397;53.016;-2.260;2023-05-07T01:46:00;37.60;;;13.43;;
44670;SDS011;48397;53.016;-2.260;2023-05-07T01:48:29;45.03;;;16.50;;
44670;SDS011;48397;53.016;-2.260;2023-05-07T01:50:59;37.35;;;14.38;;
44670;SDS011;48397;53.016;-2.260;2023-05-07T01:53:27;41.63;;;15.48;;
44670;SDS011;48397;53.016;-2.260;2023-05-07T01:55:56;39.75;;;15.20;;
44670;SDS011;48397;53.016;-2.260;2023-05-07T01:58:25;40.40;;;16.35;;
44670;SDS011;48397;53.016;-2.260;2023-05-07T02:00:52;39.95;;;15.95;;
44670;SDS011;48397;53.016;-2.260;2023-05-07T02:03:22;34.90;;;13.73;;
44670;SDS011;48397;53.016;-2.260;2023-05-07T02:05:57;34.47;;;14.93;;
44670;SDS011;48397;53.016;-2.260;2023-05-07T02:08:43;25.98;;;10.65;;
44670;SDS011;48397;53.016;-2.260;2023-05-07T02:11:13;32.40;;;14.10;;
44670;SDS011;48397;53.016;-2.260;2023-05-07T02:13:41;41.03;;;16.98;;
44670;SDS011;48397;53.016;-2.260;2023-05-07T02:16:08;41.80;;;17.83;;
44670;SDS011;48397;53.016;-2.260;2023-05-07T02:18:39;42.58;;;16.73;;
44670;SDS011;48397;53.016;-2.260;2023-05-07T02:21:07;41.70;;;17.48;;
44670;SDS011;48397;53.016;-2.260;2023-05-07T02:23:35;44.03;;;17.38;;
44670;SDS011;48397;53.016;-2.260;2023-05-07T02:28:31;44.10;;;16.73;;
44670;SDS011;48397;53.016;-2.260;2023-05-07T02:31:04;28.50;;;10.57;;
44670;SDS011;48397;53.016;-2.260;2023-05-07T02:33:33;41.78;;;14.85;;
44670;SDS011;48397;53.016;-2.260;2023-05-07T02:36:10;44.20;;;16.55;;
44670;SDS011;48397;53.016;-2.260;2023-05-07T02:40:55;43.45;;;15.65;;
44670;SDS011;48397;53.016;-2.260;2023-05-07T02:43:25;51.85;;;18.40;;
44670;SDS011;48397;53.016;-2.260;2023-05-07T02:46:02;46.83;;;18.27;;
44670;SDS011;48397;53.016;-2.260;2023-05-07T02:48:32;43.22;;;15.77;;
44670;SDS011;48397;53.016;-2.260;2023-05-07T02:51:01;49.22;;;17.60;;
44670;SDS011;48397;53.016;-2.260;2023-05-07T02:53:31;56.08;;;21.15;;
44670;SDS011;48397;53.016;-2.260;2023-05-07T02:55:59;55.53;;;20.58;;
44670;SDS011;48397;53.016;-2.260;2023-05-07T02:58:28;42.50;;;17.35;;
44670;SDS011;48397;53.016;-2.260;2023-05-07T03:00:59;51.25;;;18.05;;
44670;SDS011;48397;53.016;-2.260;2023-05-07T03:03:38;42.25;;;17.02;;
44670;SDS011;48397;53.016;-2.260;2023-05-07T03:06:07;44.95;;;18.20;;
44670;SDS011;48397;53.016;-2.260;2023-05-07T03:08:36;45.45;;;17.58;;
44670;SDS011;48397;53.016;-2.260;2023-05-07T03:11:04;50.80;;;19.83;;
44670;SDS011;48397;53.016;-2.260;2023-05-07T03:13:32;50.15;;;20.17;;
44670;SDS011;48397;53.016;-2.260;2023-05-07T03:16:00;46.25;;;17.65;;
44670;SDS011;48397;53.016;-2.260;2023-05-07T03:18:27;52.25;;;22.42;;
44670;SDS011;48397;53.016;-2.260;2023-05-07T03:20:55;48.88;;;17.77;;
44670;SDS011;48397;53.016;-2.260;2023-05-07T03:23:23;41.00;;;15.18;;
44670;SDS011;48397;53.016;-2.260;2023-05-07T03:25:52;33.53;;;14.50;;
44670;SDS011;48397;53.016;-2.260;2023-05-07T03:28:19;30.00;;;11.15;;
44670;SDS011;48397;53.016;-2.260;2023-05-07T03:30:52;28.63;;;11.32;;
44670;SDS011;48397;53.016;-2.260;2023-05-07T03:33:20;19.55;;;9.45;;
44670;SDS011;48397;53.016;-2.260;2023-05-07T03:35:48;25.67;;;10.68;;
44670;SDS011;48397;53.016;-2.260;2023-05-07T03:38:20;29.35;;;11.43;;
44670;SDS011;48397;53.016;-2.260;2023-05-07T03:43:17;24.42;;;9.65;;
44670;SDS011;48397;53.016;-2.260;2023-05-07T03:45:49;31.40;;;12.50;;
44670;SDS011;48397;53.016;-2.260;2023-05-07T03:48:24;27.38;;;10.82;;
44670;SDS011;48397;53.016;-2.260;2023-05-07T03:50:55;31.00;;;10.60;;
44670;SDS011;48397;53.016;-2.260;2023-05-07T03:53:28;31.10;;;10.98;;
44670;SDS011;48397;53.016;-2.260;2023-05-07T04:00:56;28.70;;;11.02;;
44670;SDS011;48397;53.016;-2.260;2023-05-07T04:03:27;33.60;;;13.02;;
44670;SDS011;48397;53.016;-2.260;2023-05-07T04:05:58;28.40;;;10.35;;
44670;SDS011;48397;53.016;-2.260;2023-05-07T04:08:26;25.67;;;10.65;;
44670;SDS011;48397;53.016;-2.260;2023-05-07T04:10:55;26.92;;;9.65;;
44670;SDS011;48397;53.016;-2.260;2023-05-07T04:13:25;25.23;;;10.20;;
44670;SDS011;48397;53.016;-2.260;2023-05-07T04:15:54;24.02;;;10.52;;
44670;SDS011;48397;53.016;-2.260;2023-05-07T04:18:24;34.90;;;12.93;;
44670;SDS011;48397;53.016;-2.260;2023-05-07T04:20:51;32.97;;;12.30;;
44670;SDS011;48397;53.016;-2.260;2023-05-07T04:23:21;24.27;;;9.55;;
44670;SDS011;48397;53.016;-2.260;2023-05-07T04:25:49;27.58;;;10.07;;
44670;SDS011;48397;53.016;-2.260;2023-05-07T04:28:30;22.98;;;10.50;;
44670;SDS011;48397;53.016;-2.260;2023-05-07T04:30:59;26.83;;;10.77;;
44670;SDS011;48397;53.016;-2.260;2023-05-07T04:33:28;28.90;;;9.98;;
44670;SDS011;48397;53.016;-2.260;2023-05-07T04:35:58;20.30;;;9.02;;
44670;SDS011;48397;53.016;-2.260;2023-05-07T04:38:32;22.33;;;10.23;;
44670;SDS011;48397;53.016;-2.260;2023-05-07T04:41:03;24.85;;;11.18;;
44670;SDS011;48397;53.016;-2.260;2023-05-07T04:43:36;28.35;;;12.02;;
44670;SDS011;48397;53.016;-2.260;2023-05-07T04:46:05;26.15;;;10.82;;
44670;SDS011;48397;53.016;-2.260;2023-05-07T04:48:33;25.17;;;11.30;;
44670;SDS011;48397;53.016;-2.260;2023-05-07T04:51:03;29.10;;;11.52;;
44670;SDS011;48397;53.016;-2.260;2023-05-07T04:53:32;29.38;;;10.50;;
44670;SDS011;48397;53.016;-2.260;2023-05-07T04:56:00;29.58;;;11.32;;
44670;SDS011;48397;53.016;-2.260;2023-05-07T04:58:36;31.25;;;11.02;;
44670;SDS011;48397;53.016;-2.260;2023-05-07T05:01:04;24.70;;;9.68;;
44670;SDS011;48397;53.016;-2.260;2023-05-07T05:06:00;34.17;;;11.68;;
44670;SDS011;48397;53.016;-2.260;2023-05-07T05:08:31;29.23;;;12.45;;
44670;SDS011;48397;53.016;-2.260;2023-05-07T05:11:01;27.17;;;11.73;;
44670;SDS011;48397;53.016;-2.260;2023-05-07T05:13:31;33.20;;;11.65;;
44670;SDS011;48397;53.016;-2.260;2023-05-07T05:16:02;28.38;;;11.05;;
44670;SDS011;48397;53.016;-2.260;2023-05-07T05:18:32;23.55;;;9.85;;
44670;SDS011;48397;53.016;-2.260;2023-05-07T05:21:00;32.58;;;10.70;;
44670;SDS011;48397;53.016;-2.260;2023-05-07T05:23:28;27.15;;;10.77;;
44670;SDS011;48397;53.016;-2.260;2023-05-07T05:25:56;30.13;;;12.13;;
44670;SDS011;48397;53.016;-2.260;2023-05-07T05:28:27;22.00;;;10.13;;
44670;SDS011;48397;53.016;-2.260;2023-05-07T05:30:55;25.30;;;9.30;;
44670;SDS011;48397;53.016;-2.260;2023-05-07T05:33:25;26.33;;;10.07;;
44670;SDS011;48397;53.016;-2.260;2023-05-07T05:35:55;28.27;;;10.80;;
44670;SDS011;48397;53.016;-2.260;2023-05-07T05:38:23;30.42;;;11.13;;
44670;SDS011;48397;53.016;-2.260;2023-05-07T05:40:51;27.15;;;11.20;;
44670;SDS011;48397;53.016;-2.260;2023-05-07T05:43:22;24.83;;;9.80;;
44670;SDS011;48397;53.016;-2.260;2023-05-07T05:45:50;27.35;;;10.80;;
44670;SDS011;48397;53.016;-2.260;2023-05-07T05:48:18;21.35;;;9.55;;
44670;SDS011;48397;53.016;-2.260;2023-05-07T05:50:46;27.15;;;8.73;;
44670;SDS011;48397;53.016;-2.260;2023-05-07T05:53:15;18.05;;;7.38;;
44670;SDS011;48397;53.016;-2.260;2023-05-07T05:58:12;20.52;;;8.27;;
44670;SDS011;48397;53.016;-2.260;2023-05-07T06:00:44;25.35;;;8.73;;
44670;SDS011;48397;53.016;-2.260;2023-05-07T06:03:13;20.67;;;7.82;;
44670;SDS011;48397;53.016;-2.260;2023-05-07T06:05:42;14.65;;;6.90;;
44670;SDS011;48397;53.016;-2.260;2023-05-07T06:08:10;22.38;;;7.95;;
44670;SDS011;48397;53.016;-2.260;2023-05-07T06:10:37;17.70;;;7.30;;
44670;SDS011;48397;53.016;-2.260;2023-05-07T06:13:07;16.83;;;6.85;;
44670;SDS011;48397;53.016;-2.260;2023-05-07T06:15:36;21.55;;;6.00;;
44670;SDS011;48397;53.016;-2.260;2023-05-07T06:18:09;21.10;;;7.43;;
44670;SDS011;48397;53.016;-2.260;2023-05-07T06:23:10;24.92;;;8.95;;
44670;SDS011;48397;53.016;-2.260;2023-05-07T06:25:38;20.95;;;8.55;;
44670;SDS011;48397;53.016;-2.260;2023-05-07T06:28:06;16.85;;;7.22;;
44670;SDS011;48397;53.016;-2.260;2023-05-07T06:30:39;15.05;;;6.95;;
44670;SDS011;48397;53.016;-2.260;2023-05-07T06:33:07;12.95;;;5.30;;
44670;SDS011;48397;53.016;-2.260;2023-05-07T06:35:35;12.75;;;4.82;;
44670;SDS011;48397;53.016;-2.260;2023-05-07T06:38:03;11.82;;;4.90;;
44670;SDS011;48397;53.016;-2.260;2023-05-07T06:40:31;15.30;;;5.32;;
44670;SDS011;48397;53.016;-2.260;2023-05-07T06:43:00;16.65;;;6.15;;
44670;SDS011;48397;53.016;-2.260;2023-05-07T06:45:47;14.80;;;6.57;;
44670;SDS011;48397;53.016;-2.260;2023-05-07T06:48:16;13.68;;;5.50;;
44670;SDS011;48397;53.016;-2.260;2023-05-07T06:50:50;11.80;;;5.80;;
44670;SDS011;48397;53.016;-2.260;2023-05-07T06:53:18;14.68;;;6.10;;
44670;SDS011;48397;53.016;-2.260;2023-05-07T06:55:47;11.48;;;5.35;;
44670;SDS011;48397;53.016;-2.260;2023-05-07T06:58:18;10.10;;;4.65;;
44670;SDS011;48397;53.016;-2.260;2023-05-07T07:00:45;14.35;;;5.22;;
44670;SDS011;48397;53.016;-2.260;2023-05-07T07:03:13;15.50;;;4.80;;
44670;SDS011;48397;53.016;-2.260;2023-05-07T07:05:41;8.18;;;3.08;;
44670;SDS011;48397;53.016;-2.260;2023-05-07T07:08:09;13.48;;;4.75;;
44670;SDS011;48397;53.016;-2.260;2023-05-07T07:10:37;13.27;;;4.57;;
44670;SDS011;48397;53.016;-2.260;2023-05-07T07:13:05;10.98;;;3.90;;
44670;SDS011;48397;53.016;-2.260;2023-05-07T07:15:33;9.82;;;3.90;;
44670;SDS011;48397;53.016;-2.260;2023-05-07T07:18:01;11.40;;;4.13;;
44670;SDS011;48397;53.016;-2.260;2023-05-07T07:22:57;13.85;;;3.65;;
44670;SDS011;48397;53.016;-2.260;2023-05-07T07:25:25;13.68;;;4.50;;
44670;SDS011;48397;53.016;-2.260;2023-05-07T07:27:53;13.23;;;4.25;;
44670;SDS011;48397;53.016;-2.260;2023-05-07T07:30:23;12.00;;;4.30;;
44670;SDS011;48397;53.016;-2.260;2023-05-07T07:32:51;14.15;;;4.22;;
44670;SDS011;48397;53.016;-2.260;2023-05-07T07:35:21;10.82;;;4.15;;
44670;SDS011;48397;53.016;-2.260;2023-05-07T07:37:52;11.40;;;4.82;;
44670;SDS011;48397;53.016;-2.260;2023-05-07T07:40:20;10.55;;;4.97;;
44670;SDS011;48397;53.016;-2.260;2023-05-07T07:42:48;8.82;;;4.57;;
44670;SDS011;48397;53.016;-2.260;2023-05-07T07:47:46;13.07;;;4.55;;
44670;SDS011;48397;53.016;-2.260;2023-05-07T07:50:14;13.30;;;4.50;;
44670;SDS011;48397;53.016;-2.260;2023-05-07T07:53:02;8.75;;;4.00;;
44670;SDS011;48397;53.016;-2.260;2023-05-07T07:55:30;8.25;;;3.17;;
44670;SDS011;48397;53.016;-2.260;2023-05-07T07:58:00;13.25;;;4.55;;
44670;SDS011;48397;53.016;-2.260;2023-05-07T08:00:28;12.57;;;4.53;;
44670;SDS011;48397;53.016;-2.260;2023-05-07T08:02:56;15.75;;;4.50;;
44670;SDS011;48397;53.016;-2.260;2023-05-07T08:05:29;11.60;;;4.53;;
44670;SDS011;48397;53.016;-2.260;2023-05-07T08:07:58;8.38;;;3.00;;
44670;SDS011;48397;53.016;-2.260;2023-05-07T08:10:31;9.23;;;4.53;;
44670;SDS011;48397;53.016;-2.260;2023-05-07T08:13:07;13.00;;;3.58;;
44670;SDS011;48397;53.016;-2.260;2023-05-07T08:15:38;11.75;;;4.05;;
44670;SDS011;48397;53.016;-2.260;2023-05-07T08:18:06;12.20;;;3.92;;
44670;SDS011;48397;53.016;-2.260;2023-05-07T08:20:34;10.00;;;4.05;;
44670;SDS011;48397;53.016;-2.260;2023-05-07T08:23:09;11.20;;;3.70;;
44670;SDS011;48397;53.016;-2.260;2023-05-07T08:25:39;8.90;;;3.60;;
44670;SDS011;48397;53.016;-2.260;2023-05-07T08:28:09;8.80;;;3.85;;
44670;SDS011;48397;53.016;-2.260;2023-05-07T08:30:38;10.85;;;3.33;;
44670;SDS011;48397;53.016;-2.260;2023-05-07T08:33:08;7.45;;;3.17;;
44670;SDS011;48397;53.016;-2.260;2023-05-07T08:35:38;11.00;;;3.22;;
44670;SDS011;48397;53.016;-2.260;2023-05-07T08:38:07;9.05;;;3.63;;
44670;SDS011;48397;53.016;-2.260;2023-05-07T08:43:14;10.75;;;3.60;;
44670;SDS011;48397;53.016;-2.260;2023-05-07T08:45:44;8.60;;;3.40;;
44670;SDS011;48397;53.016;-2.260;2023-05-07T08:48:15;10.80;;;3.60;;
44670;SDS011;48397;53.016;-2.260;2023-05-07T08:50:53;12.30;;;3.97;;
44670;SDS011;48397;53.016;-2.260;2023-05-07T08:53:21;12.30;;;4.10;;
44670;SDS011;48397;53.016;-2.260;2023-05-07T08:55:52;8.40;;;3.60;;
44670;SDS011;48397;53.016;-2.260;2023-05-07T08:58:20;11.98;;;3.97;;
44670;SDS011;48397;53.016;-2.260;2023-05-07T09:00:49;6.93;;;3.60;;
44670;SDS011;48397;53.016;-2.260;2023-05-07T09:03:21;10.23;;;3.55;;
44670;SDS011;48397;53.016;-2.260;2023-05-07T09:05:51;15.32;;;5.93;;
44670;SDS011;48397;53.016;-2.260;2023-05-07T09:08:24;10.32;;;3.58;;
44670;SDS011;48397;53.016;-2.260;2023-05-07T09:10:54;11.55;;;3.78;;
44670;SDS011;48397;53.016;-2.260;2023-05-07T09:13:23;10.52;;;3.40;;
44670;SDS011;48397;53.016;-2.260;2023-05-07T09:15:51;16.35;;;3.70;;
44670;SDS011;48397;53.016;-2.260;2023-05-07T09:18:20;8.80;;;3.55;;
44670;SDS011;48397;53.016;-2.260;2023-05-07T09:20:48;9.35;;;3.78;;
44670;SDS011;48397;53.016;-2.260;2023-05-07T09:23:18;10.38;;;3.35;;
44670;SDS011;48397;53.016;-2.260;2023-05-07T09:25:48;10.80;;;3.60;;
44670;SDS011;48397;53.016;-2.260;2023-05-07T09:28:26;7.10;;;2.72;;
44670;SDS011;48397;53.016;-2.260;2023-05-07T09:30:54;9.68;;;3.78;;
44670;SDS011;48397;53.016;-2.260;2023-05-07T09:33:24;9.15;;;4.00;;
44670;SDS011;48397;53.016;-2.260;2023-05-07T09:35:56;8.35;;;3.60;;
44670;SDS011;48397;53.016;-2.260;2023-05-07T09:38:24;10.88;;;3.67;;
44670;SDS011;48397;53.016;-2.260;2023-05-07T09:41:01;8.75;;;4.72;;
44670;SDS011;48397;53.016;-2.260;2023-05-07T09:43:47;10.82;;;3.60;;
44670;SDS011;48397;53.016;-2.260;2023-05-07T09:46:29;8.30;;;3.05;;
44670;SDS011;48397;53.016;-2.260;2023-05-07T09:49:07;7.00;;;2.75;;
44670;SDS011;48397;53.016;-2.260;2023-05-07T09:51:49;8.43;;;2.60;;
44670;SDS011;48397;53.016;-2.260;2023-05-07T09:54:22;5.85;;;2.60;;
44670;SDS011;48397;53.016;-2.260;2023-05-07T09:56:54;9.32;;;2.85;;
44670;SDS011;48397;53.016;-2.260;2023-05-07T09:59:26;7.47;;;3.13;;
44670;SDS011;48397;53.016;-2.260;2023-05-07T10:01:57;6.88;;;3.22;;
44670;SDS011;48397;53.016;-2.260;2023-05-07T10:04:33;5.80;;;2.60;;
44670;SDS011;48397;53.016;-2.260;2023-05-07T10:07:04;6.80;;;2.72;;
44670;SDS011;48397;53.016;-2.260;2023-05-07T10:09:36;10.38;;;3.20;;
44670;SDS011;48397;53.016;-2.260;2023-05-07T10:12:12;6.90;;;2.70;;
44670;SDS011;48397;53.016;-2.260;2023-05-07T10:17:10;4.10;;;2.38;;
44670;SDS011;48397;53.016;-2.260;2023-05-07T10:19:43;5.65;;;2.40;;
44670;SDS011;48397;53.016;-2.260;2023-05-07T10:22:12;8.13;;;3.15;;
44670;SDS011;48397;53.016;-2.260;2023-05-07T10:24:44;6.95;;;3.13;;
44670;SDS011;48397;53.016;-2.260;2023-05-07T10:27:17;6.57;;;2.30;;
44670;SDS011;48397;53.016;-2.260;2023-05-07T10:33:06;11.65;;;2.97;;
44670;SDS011;48397;53.016;-2.260;2023-05-07T10:35:42;6.03;;;2.70;;
44670;SDS011;48397;53.016;-2.260;2023-05-07T10:38:13;8.60;;;3.20;;
44670;SDS011;48397;53.016;-2.260;2023-05-07T10:40:43;7.18;;;2.58;;
44670;SDS011;48397;53.016;-2.260;2023-05-07T10:43:16;7.93;;;2.72;;
44670;SDS011;48397;53.016;-2.260;2023-05-07T10:49:09;8.02;;;3.13;;
44670;SDS011;48397;53.016;-2.260;2023-05-07T10:51:47;5.05;;;2.25;;
44670;SDS011;48397;53.016;-2.260;2023-05-07T10:54:46;8.63;;;2.75;;
44670;SDS011;48397;53.016;-2.260;2023-05-07T11:05:39;5.20;;;1.90;;
44670;SDS011;48397;53.016;-2.260;2023-05-07T11:08:18;5.07;;;2.10;;
44670;SDS011;48397;53.016;-2.260;2023-05-07T11:10:59;4.68;;;2.20;;
44670;SDS011;48397;53.016;-2.260;2023-05-07T11:13:41;6.63;;;2.63;;
44670;SDS011;48397;53.016;-2.260;2023-05-07T11:16:49;5.25;;;2.28;;
44670;SDS011;48397;53.016;-2.260;2023-05-07T11:22:46;6.45;;;2.50;;
44670;SDS011;48397;53.016;-2.260;2023-05-07T11:25:30;5.43;;;2.38;;
44670;SDS011;48397;53.016;-2.260;2023-05-07T11:28:07;6.32;;;2.10;;
44670;SDS011;48397;53.016;-2.260;2023-05-07T11:30:43;4.07;;;2.30;;
44670;SDS011;48397;53.016;-2.260;2023-05-07T11:33:16;4.20;;;2.10;;
44670;SDS011;48397;53.016;-2.260;2023-05-07T11:35:47;4.97;;;1.85;;
44670;SDS011;48397;53.016;-2.260;2023-05-07T11:38:17;6.18;;;2.08;;
44670;SDS011;48397;53.016;-2.260;2023-05-07T11:40:49;5.53;;;2.35;;
44670;SDS011;48397;53.016;-2.260;2023-05-07T11:43:22;4.13;;;1.98;;
44670;SDS011;48397;53.016;-2.260;2023-05-07T11:45:52;7.30;;;2.25;;
44670;SDS011;48397;53.016;-2.260;2023-05-07T11:48:21;5.13;;;2.10;;
44670;SDS011;48397;53.016;-2.260;2023-05-07T11:50:53;4.60;;;2.03;;
44670;SDS011;48397;53.016;-2.260;2023-05-07T11:53:33;7.35;;;2.50;;
44670;SDS011;48397;53.016;-2.260;2023-05-07T11:56:13;3.95;;;1.85;;
44670;SDS011;48397;53.016;-2.260;2023-05-07T11:58:42;5.72;;;1.90;;
44670;SDS011;48397;53.016;-2.260;2023-05-07T12:01:12;7.93;;;2.83;;
44670;SDS011;48397;53.016;-2.260;2023-05-07T12:03:41;6.45;;;2.10;;
44670;SDS011;48397;53.016;-2.260;2023-05-07T12:06:10;5.13;;;2.30;;
44670;SDS011;48397;53.016;-2.260;2023-05-07T12:08:41;7.03;;;2.22;;
44670;SDS011;48397;53.016;-2.260;2023-05-07T12:11:29;5.70;;;2.28;;
44670;SDS011;48397;53.016;-2.260;2023-05-07T12:13:57;6.72;;;2.10;;
44670;SDS011;48397;53.016;-2.260;2023-05-07T12:16:26;5.05;;;2.13;;
44670;SDS011;48397;53.016;-2.260;2023-05-07T12:18:54;5.78;;;2.40;;
44670;SDS011;48397;53.016;-2.260;2023-05-07T12:23:51;7.72;;;2.75;;
44670;SDS011;48397;53.016;-2.260;2023-05-07T12:26:20;7.90;;;2.13;;
44670;SDS011;48397;53.016;-2.260;2023-05-07T12:28:50;4.50;;;2.00;;
44670;SDS011;48397;53.016;-2.260;2023-05-07T12:31:18;7.18;;;2.40;;
44670;SDS011;48397;53.016;-2.260;2023-05-07T12:33:46;6.63;;;2.10;;
44670;SDS011;48397;53.016;-2.260;2023-05-07T12:36:13;2.67;;;1.85;;
44670;SDS011;48397;53.016;-2.260;2023-05-07T12:38:42;4.90;;;2.00;;
44670;SDS011;48397;53.016;-2.260;2023-05-07T12:43:39;3.92;;;1.95;;
44670;SDS011;48397;53.016;-2.260;2023-05-07T12:46:11;4.22;;;1.80;;
44670;SDS011;48397;53.016;-2.260;2023-05-07T12:48:45;5.90;;;2.13;;
44670;SDS011;48397;53.016;-2.260;2023-05-07T12:51:13;4.18;;;2.30;;
44670;SDS011;48397;53.016;-2.260;2023-05-07T12:53:43;3.88;;;1.90;;
44670;SDS011;48397;53.016;-2.260;2023-05-07T12:56:11;3.90;;;1.85;;
44670;SDS011;48397;53.016;-2.260;2023-05-07T12:58:39;3.80;;;1.73;;
44670;SDS011;48397;53.016;-2.260;2023-05-07T13:01:07;4.10;;;2.10;;
44670;SDS011;48397;53.016;-2.260;2023-05-07T13:03:37;4.20;;;1.52;;
44670;SDS011;48397;53.016;-2.260;2023-05-07T13:06:07;6.60;;;2.13;;
44670;SDS011;48397;53.016;-2.260;2023-05-07T13:08:40;5.90;;;2.45;;
44670;SDS011;48397;53.016;-2.260;2023-05-07T13:11:10;6.18;;;1.80;;
44670;SDS011;48397;53.016;-2.260;2023-05-07T13:13:40;7.90;;;3.42;;
44670;SDS011;48397;53.016;-2.260;2023-05-07T13:16:09;6.93;;;2.17;;
44670;SDS011;48397;53.016;-2.260;2023-05-07T13:18:39;5.18;;;2.10;;
44670;SDS011;48397;53.016;-2.260;2023-05-07T13:21:07;5.35;;;1.98;;
44670;SDS011;48397;53.016;-2.260;2023-05-07T13:23:35;5.93;;;2.40;;
44670;SDS011;48397;53.016;-2.260;2023-05-07T13:26:05;4.78;;;1.90;;
44670;SDS011;48397;53.016;-2.260;2023-05-07T13:28:52;6.15;;;2.00;;
44670;SDS011;48397;53.016;-2.260;2023-05-07T13:31:21;3.90;;;1.77;;
44670;SDS011;48397;53.016;-2.260;2023-05-07T13:36:17;4.65;;;2.35;;
44670;SDS011;48397;53.016;-2.260;2023-05-07T13:38:44;4.78;;;1.83;;
44670;SDS011;48397;53.016;-2.260;2023-05-07T13:41:13;4.82;;;1.65;;
44670;SDS011;48397;53.016;-2.260;2023-05-07T13:43:42;4.05;;;1.70;;
44670;SDS011;48397;53.016;-2.260;2023-05-07T13:46:10;2.50;;;1.50;;
44670;SDS011;48397;53.016;-2.260;2023-05-07T13:48:40;4.93;;;1.83;;
44670;SDS011;48397;53.016;-2.260;2023-05-07T13:51:09;3.55;;;1.58;;
44670;SDS011;48397;53.016;-2.260;2023-05-07T13:53:37;5.53;;;1.90;;
44670;SDS011;48397;53.016;-2.260;2023-05-07T13:56:05;5.00;;;1.90;;
44670;SDS011;48397;53.016;-2.260;2023-05-07T13:58:33;4.35;;;1.70;;
44670;SDS011;48397;53.016;-2.260;2023-05-07T14:01:14;3.58;;;1.63;;
44670;SDS011;48397;53.016;-2.260;2023-05-07T14:03:42;3.13;;;1.85;;
44670;SDS011;48397;53.016;-2.260;2023-05-07T14:06:11;4.57;;;1.90;;
44670;SDS011;48397;53.016;-2.260;2023-05-07T14:08:39;4.13;;;2.00;;
44670;SDS011;48397;53.016;-2.260;2023-05-07T14:11:07;5.18;;;2.20;;
44670;SDS011;48397;53.016;-2.260;2023-05-07T14:13:35;2.97;;;1.80;;
44670;SDS011;48397;53.016;-2.260;2023-05-07T14:16:03;6.28;;;2.28;;
44670;SDS011;48397;53.016;-2.260;2023-05-07T14:18:31;3.78;;;2.10;;
44670;SDS011;48397;53.016;-2.260;2023-05-07T14:21:01;5.05;;;2.00;;
44670;SDS011;48397;53.016;-2.260;2023-05-07T14:23:30;4.68;;;2.40;;
44670;SDS011;48397;53.016;-2.260;2023-05-07T14:25:58;3.65;;;1.90;;
44670;SDS011;48397;53.016;-2.260;2023-05-07T14:28:27;4.07;;;1.83;;
44670;SDS011;48397;53.016;-2.260;2023-05-07T14:30:55;3.13;;;1.60;;
44670;SDS011;48397;53.016;-2.260;2023-05-07T14:33:23;6.05;;;1.95;;
44670;SDS011;48397;53.016;-2.260;2023-05-07T14:35:50;3.13;;;1.65;;
44670;SDS011;48397;53.016;-2.260;2023-05-07T14:38:21;5.45;;;1.60;;
44670;SDS011;48397;53.016;-2.260;2023-05-07T14:40:52;3.40;;;1.60;;
44670;SDS011;48397;53.016;-2.260;2023-05-07T14:43:26;5.68;;;1.98;;
44670;SDS011;48397;53.016;-2.260;2023-05-07T14:45:53;3.88;;;1.52;;
44670;SDS011;48397;53.016;-2.260;2023-05-07T14:48:21;3.42;;;1.63;;
44670;SDS011;48397;53.016;-2.260;2023-05-07T14:50:49;5.07;;;1.73;;
44670;SDS011;48397;53.016;-2.260;2023-05-07T14:53:18;3.58;;;1.50;;
44670;SDS011;48397;53.016;-2.260;2023-05-07T14:55:47;3.97;;;1.60;;
44670;SDS011;48397;53.016;-2.260;2023-05-07T14:58:18;3.40;;;1.60;;
44670;SDS011;48397;53.016;-2.260;2023-05-07T15:00:49;2.17;;;1.50;;
44670;SDS011;48397;53.016;-2.260;2023-05-07T15:03:17;5.13;;;1.75;;
44670;SDS011;48397;53.016;-2.260;2023-05-07T15:05:45;4.85;;;1.50;;
44670;SDS011;48397;53.016;-2.260;2023-05-07T15:08:14;4.47;;;1.58;;
44670;SDS011;48397;53.016;-2.260;2023-05-07T15:10:42;2.78;;;1.50;;
44670;SDS011;48397;53.016;-2.260;2023-05-07T15:13:10;4.03;;;1.60;;
44670;SDS011;48397;53.016;-2.260;2023-05-07T15:15:42;4.88;;;1.67;;
44670;SDS011;48397;53.016;-2.260;2023-05-07T15:18:12;4.22;;;1.60;;
44670;SDS011;48397;53.016;-2.260;2023-05-07T15:20:41;3.45;;;1.50;;
44670;SDS011;48397;53.016;-2.260;2023-05-07T15:23:11;2.85;;;1.30;;
44670;SDS011;48397;53.016;-2.260;2023-05-07T15:25:43;3.13;;;1.40;;
44670;SDS011;48397;53.016;-2.260;2023-05-07T15:28:12;1.88;;;1.20;;
44670;SDS011;48397;53.016;-2.260;2023-05-07T15:30:40;2.67;;;1.15;;
44670;SDS011;48397;53.016;-2.260;2023-05-07T15:33:07;3.28;;;1.33;;
44670;SDS011;48397;53.016;-2.260;2023-05-07T15:35:44;3.78;;;1.42;;
44670;SDS011;48397;53.016;-2.260;2023-05-07T15:38:13;5.47;;;1.40;;
44670;SDS011;48397;53.016;-2.260;2023-05-07T15:50:09;3.40;;;1.50;;
44670;SDS011;48397;53.016;-2.260;2023-05-07T15:52:37;4.25;;;1.50;;
44670;SDS011;48397;53.016;-2.260;2023-05-07T15:55:07;2.85;;;1.45;;